createdAt,value
2022-08-03T00:00:50.257Z,3.35
2022-08-03T00:01:52.498Z,3.35
2022-08-03T00:02:54.832Z,3.58
2022-08-03T00:03:57.139Z,3.10
2022-08-03T00:04:59.327Z,3.95
2022-08-03T00:06:04.089Z,6.97
2022-08-03T00:07:07.277Z,5.38
2022-08-03T00:08:09.505Z,3.55
2022-08-03T00:09:12.093Z,3.42
2022-08-03T00:10:14.510Z,4.93
2022-08-03T00:11:16.803Z,3.80
2022-08-03T00:12:19.163Z,3.40
2022-08-03T00:13:21.496Z,4.38
2022-08-03T00:14:23.666Z,3.97
2022-08-03T00:15:25.991Z,4.10
2022-08-03T00:16:28.325Z,4.10
2022-08-03T00:17:30.647Z,3.50
2022-08-03T00:18:53.012Z,5.03
2022-08-03T00:19:55.270Z,4.97
2022-08-03T00:20:57.852Z,3.95
2022-08-03T00:22:00.239Z,3.63
2022-08-03T00:23:04.665Z,3.95
2022-08-03T00:24:07.111Z,3.90
2022-08-03T00:25:09.396Z,3.92
2022-08-03T00:26:13.560Z,4.93
2022-08-03T00:27:15.823Z,6.07
2022-08-03T00:28:22.094Z,3.42
2022-08-03T00:29:26.087Z,3.65
2022-08-03T00:30:30.827Z,3.30
2022-08-03T00:31:51.462Z,4.60
2022-08-03T00:32:55.869Z,3.40
2022-08-03T00:34:03.481Z,3.20
2022-08-03T00:35:09.792Z,5.05
2022-08-03T00:36:14.615Z,3.00
2022-08-03T00:37:17.587Z,5.05
2022-08-03T00:38:20.522Z,3.53
2022-08-03T00:39:22.722Z,4.22
2022-08-03T00:40:25.060Z,3.83
2022-08-03T00:41:27.610Z,3.78
2022-08-03T00:42:29.809Z,3.25
2022-08-03T00:43:31.993Z,3.72
2022-08-03T00:44:40.948Z,5.70
2022-08-03T00:45:46.248Z,3.80
2022-08-03T00:46:48.522Z,4.63
2022-08-03T00:47:50.841Z,5.60
2022-08-03T00:48:53.451Z,7.47
2022-08-03T00:49:55.918Z,3.75
2022-08-03T00:50:58.893Z,3.50
2022-08-03T00:52:07.806Z,3.65
2022-08-03T00:53:13.638Z,4.35
2022-08-03T00:54:16.170Z,4.22
2022-08-03T00:55:19.118Z,3.45
2022-08-03T00:56:21.467Z,3.97
2022-08-03T00:57:23.661Z,4.25
2022-08-03T00:58:26.040Z,3.45
2022-08-03T00:59:28.319Z,3.70
2022-08-03T01:00:30.527Z,6.85
2022-08-03T01:01:32.917Z,3.30
2022-08-03T01:02:35.268Z,3.45
2022-08-03T01:03:37.470Z,3.10
2022-08-03T01:04:42.154Z,3.72
2022-08-03T01:06:13.432Z,4.35
2022-08-03T01:07:31.607Z,6.03
2022-08-03T01:08:54.596Z,4.68
2022-08-03T01:10:47.862Z,4.70
2022-08-03T01:12:01.710Z,3.90
2022-08-03T01:13:59.143Z,4.22
2022-08-03T01:14:41.433Z,3.85
2022-08-03T01:15:50.517Z,3.95
2022-08-03T01:17:30.090Z,3.33
2022-08-03T01:18:45.243Z,4.25
2022-08-03T01:19:59.604Z,5.78
2022-08-03T01:21:07.688Z,3.33
2022-08-03T01:22:15.945Z,5.38
2022-08-03T01:23:44.370Z,3.40
2022-08-03T01:25:14.878Z,4.03
2022-08-03T01:26:41.987Z,3.70
2022-08-03T01:28:31.101Z,3.22
2022-08-03T01:29:55.283Z,4.18
2022-08-03T01:31:04.014Z,6.20
2022-08-03T01:32:58.120Z,4.00
2022-08-03T01:33:39.916Z,3.40
2022-08-03T01:34:52.015Z,4.00
2022-08-03T01:36:02.217Z,3.80
2022-08-03T01:37:07.552Z,3.58
2022-08-03T01:38:24.404Z,3.60
2022-08-03T01:39:30.450Z,4.00
2022-08-03T01:40:35.426Z,3.97
2022-08-03T01:41:44.855Z,4.05
2022-08-03T01:42:48.507Z,3.58
2022-08-03T01:44:26.681Z,4.75
2022-08-03T01:45:19.090Z,4.78
2022-08-03T01:46:23.692Z,3.60
2022-08-03T01:47:30.075Z,3.60
2022-08-03T01:48:33.502Z,4.40
2022-08-03T01:49:39.970Z,4.20
2022-08-03T01:50:45.856Z,4.15
2022-08-03T01:52:03.702Z,4.10
2022-08-03T01:53:09.298Z,4.00
2022-08-03T01:54:13.607Z,4.45
2022-08-03T01:55:19.699Z,3.80
2022-08-03T01:56:24.848Z,4.32
2022-08-03T01:57:29.606Z,3.78
2022-08-03T01:58:34.327Z,4.03
2022-08-03T01:59:38.842Z,3.83
2022-08-03T02:00:42.251Z,3.92
2022-08-03T02:02:32.252Z,4.70
2022-08-03T02:03:09.821Z,4.10
2022-08-03T02:04:15.605Z,4.40
2022-08-03T02:05:20.599Z,4.38
2022-08-03T02:07:00.362Z,3.92
2022-08-03T02:07:48.384Z,6.38
2022-08-03T02:08:52.757Z,4.63
2022-08-03T02:09:57.368Z,5.32
2022-08-03T02:11:01.066Z,4.47
2022-08-03T02:12:04.463Z,4.50
2022-08-03T02:13:08.758Z,5.90
2022-08-03T02:14:11.755Z,4.03
2022-08-03T02:15:16.681Z,4.07
2022-08-03T02:16:19.615Z,4.60
2022-08-03T02:17:39.045Z,4.20
2022-08-03T02:18:43.191Z,4.00
2022-08-03T02:19:46.527Z,7.78
2022-08-03T02:20:50.327Z,4.32
2022-08-03T02:21:57.172Z,4.40
2022-08-03T02:23:03.497Z,4.30
2022-08-03T02:24:06.383Z,6.30
2022-08-03T02:25:11.133Z,4.60
2022-08-03T02:26:18.901Z,4.40
2022-08-03T02:27:27.199Z,4.53
2022-08-03T02:28:38.709Z,4.63
2022-08-03T02:29:45.836Z,5.90
2022-08-03T02:30:54.077Z,4.72
2022-08-03T02:32:00.305Z,4.30
2022-08-03T02:33:03.166Z,4.93
2022-08-03T02:34:09.913Z,5.25
2022-08-03T02:35:15.295Z,5.22
2022-08-03T02:36:22.468Z,5.35
2022-08-03T02:37:29.182Z,5.22
2022-08-03T02:38:36.005Z,5.53
2022-08-03T02:39:40.916Z,5.43
2022-08-03T02:40:44.855Z,6.35
2022-08-03T02:42:02.279Z,6.78
2022-08-03T02:43:08.911Z,6.18
2022-08-03T02:44:13.736Z,7.68
2022-08-03T02:45:18.312Z,6.28
2022-08-03T02:46:24.794Z,7.10
2022-08-03T02:47:28.731Z,5.05
2022-08-03T02:48:52.529Z,5.18
2022-08-03T02:49:57.458Z,7.35
2022-08-03T02:51:02.453Z,5.57
2022-08-03T02:52:13.216Z,4.68
2022-08-03T02:53:20.030Z,5.88
2022-08-03T02:54:25.188Z,4.88
2022-08-03T02:55:28.639Z,4.95
2022-08-03T02:56:31.757Z,5.43
2022-08-03T02:57:36.457Z,5.50
2022-08-03T02:58:40.682Z,4.70
2022-08-03T02:59:44.383Z,4.80
2022-08-03T03:00:47.654Z,4.80
2022-08-03T03:01:50.848Z,4.68
2022-08-03T03:02:55.208Z,4.65
2022-08-03T03:03:58.305Z,5.50
2022-08-03T03:05:55.200Z,4.85
2022-08-03T03:06:27.028Z,4.80
2022-08-03T03:07:37.249Z,4.85
2022-08-03T03:08:59.651Z,4.20
2022-08-03T03:10:04.622Z,6.07
2022-08-03T03:11:08.641Z,4.40
2022-08-03T03:12:13.194Z,4.60
2022-08-03T03:13:16.289Z,5.78
2022-08-03T03:14:33.190Z,6.18
2022-08-03T03:15:39.444Z,4.57
2022-08-03T03:16:42.916Z,4.80
2022-08-03T03:17:46.502Z,4.75
2022-08-03T03:18:49.978Z,5.68
2022-08-03T03:19:52.720Z,4.50
2022-08-03T03:20:58.730Z,4.43
2022-08-03T03:22:03.142Z,4.97
2022-08-03T03:23:05.774Z,4.10
2022-08-03T03:24:09.917Z,4.57
2022-08-03T03:25:12.412Z,4.68
2022-08-03T03:26:15.790Z,4.50
2022-08-03T03:27:18.651Z,4.78
2022-08-03T03:28:23.279Z,5.53
2022-08-03T03:29:27.909Z,4.80
2022-08-03T03:30:30.428Z,4.80
2022-08-03T03:31:32.797Z,4.35
2022-08-03T03:32:37.377Z,4.93
2022-08-03T03:33:39.710Z,6.00
2022-08-03T03:34:42.748Z,4.50
2022-08-03T03:35:47.471Z,4.65
2022-08-03T03:36:50.846Z,4.93
2022-08-03T03:37:53.257Z,5.03
2022-08-03T03:38:57.812Z,4.80
2022-08-03T03:40:00.010Z,4.53
2022-08-03T03:41:02.655Z,5.07
2022-08-03T03:42:05.581Z,5.20
2022-08-03T03:43:09.044Z,5.32
2022-08-03T03:44:11.438Z,5.05
2022-08-03T03:45:14.423Z,4.38
2022-08-03T03:46:16.930Z,5.43
2022-08-03T03:47:32.724Z,6.15
2022-08-03T03:48:35.265Z,4.40
2022-08-03T03:49:37.906Z,4.65
2022-08-03T03:50:43.199Z,5.95
2022-08-03T03:51:45.434Z,5.57
2022-08-03T03:52:47.677Z,5.10
2022-08-03T03:54:03.707Z,6.68
2022-08-03T03:55:08.301Z,5.20
2022-08-03T03:56:10.683Z,5.68
2022-08-03T03:57:13.793Z,4.72
2022-08-03T03:58:17.273Z,5.03
2022-08-03T03:59:19.540Z,6.38
2022-08-03T04:00:21.813Z,4.80
2022-08-03T04:01:24.119Z,4.60
2022-08-03T04:02:26.545Z,5.30
2022-08-03T04:03:28.875Z,5.10
2022-08-03T04:04:59.840Z,4.93
2022-08-03T04:06:22.830Z,6.05
2022-08-03T04:07:45.335Z,5.15
2022-08-03T04:09:06.273Z,4.82
2022-08-03T04:10:53.407Z,5.28
2022-08-03T04:12:01.221Z,5.28
2022-08-03T04:13:10.085Z,6.20
2022-08-03T04:14:18.471Z,5.47
2022-08-03T04:15:24.249Z,5.97
2022-08-03T04:16:38.797Z,5.45
2022-08-03T04:17:46.540Z,5.22
2022-08-03T04:18:53.928Z,6.93
2022-08-03T04:19:58.004Z,6.28
2022-08-03T04:21:09.835Z,5.78
2022-08-03T04:22:16.929Z,5.22
2022-08-03T04:23:22.953Z,5.25
2022-08-03T04:24:30.978Z,6.50
2022-08-03T04:25:36.912Z,5.18
2022-08-03T04:26:41.917Z,5.43
2022-08-03T04:27:44.742Z,5.47
2022-08-03T04:29:10.764Z,5.30
2022-08-03T04:30:15.359Z,6.20
2022-08-03T04:31:21.441Z,5.68
2022-08-03T04:32:26.400Z,5.90
2022-08-03T04:33:32.602Z,5.70
2022-08-03T04:34:35.857Z,5.22
2022-08-03T04:36:01.779Z,6.50
2022-08-03T04:37:03.109Z,6.70
2022-08-03T04:38:07.756Z,6.15
2022-08-03T04:39:27.801Z,6.00
2022-08-03T04:40:39.816Z,6.07
2022-08-03T04:42:08.171Z,8.05
2022-08-03T04:43:09.176Z,5.82
2022-08-03T04:44:13.848Z,6.05
2022-08-03T04:45:17.637Z,6.55
2022-08-03T04:46:24.421Z,5.85
2022-08-03T04:47:27.202Z,6.70
2022-08-03T04:48:29.633Z,6.30
2022-08-03T04:49:32.602Z,6.07
2022-08-03T04:50:35.490Z,6.63
2022-08-03T04:51:41.041Z,6.70
2022-08-03T04:52:45.679Z,6.30
2022-08-03T04:53:48.028Z,7.03
2022-08-03T04:54:51.121Z,7.03
2022-08-03T04:55:53.375Z,7.10
2022-08-03T04:56:55.582Z,5.78
2022-08-03T04:57:58.982Z,7.97
2022-08-03T04:59:01.206Z,6.70
2022-08-03T05:00:04.902Z,7.00
2022-08-03T05:01:07.378Z,6.60
2022-08-03T05:02:09.717Z,8.40
2022-08-03T05:03:19.556Z,6.13
2022-08-03T05:04:26.239Z,7.38
2022-08-03T05:05:48.848Z,7.22
2022-08-03T05:06:54.913Z,7.85
2022-08-03T05:07:57.474Z,7.60
2022-08-03T05:09:03.469Z,6.43
2022-08-03T05:10:14.811Z,6.45
2022-08-03T05:11:18.820Z,13.88
2022-08-03T05:12:21.011Z,7.50
2022-08-03T05:13:23.191Z,6.70
2022-08-03T05:14:28.038Z,7.95
2022-08-03T05:15:30.580Z,7.90
2022-08-03T05:16:32.785Z,9.07
2022-08-03T05:17:34.993Z,7.22
2022-08-03T05:18:37.392Z,5.90
2022-08-03T05:19:39.610Z,9.38
2022-08-03T05:20:41.826Z,9.10
2022-08-03T05:21:52.168Z,11.38
2022-08-03T05:22:55.320Z,9.52
2022-08-03T05:23:57.523Z,6.65
2022-08-03T05:25:04.184Z,6.53
2022-08-03T05:26:06.508Z,7.82
2022-08-03T05:27:08.732Z,7.70
2022-08-03T05:28:10.931Z,9.00
2022-08-03T05:29:13.175Z,8.30
2022-08-03T05:30:31.335Z,6.88
2022-08-03T05:31:36.519Z,6.47
2022-08-03T05:32:38.690Z,6.90
2022-08-03T05:33:41.128Z,6.30
2022-08-03T05:34:44.034Z,9.43
2022-08-03T05:35:56.157Z,9.57
2022-08-03T05:37:07.412Z,7.68
2022-08-03T05:38:10.277Z,6.93
2022-08-03T05:39:12.826Z,6.68
2022-08-03T05:40:15.122Z,6.85
2022-08-03T05:41:22.508Z,9.27
2022-08-03T05:42:26.304Z,6.43
2022-08-03T05:43:32.112Z,6.18
2022-08-03T05:44:34.456Z,8.73
2022-08-03T05:45:38.286Z,6.43
2022-08-03T05:46:40.478Z,6.38
2022-08-03T05:47:44.376Z,6.10
2022-08-03T05:48:47.067Z,6.40
2022-08-03T05:49:49.257Z,7.07
2022-08-03T05:50:51.535Z,5.80
2022-08-03T05:51:59.989Z,6.35
2022-08-03T05:53:12.259Z,6.35
2022-08-03T05:54:14.428Z,7.30
2022-08-03T05:55:16.780Z,7.30
2022-08-03T05:56:24.176Z,7.57
2022-08-03T05:57:26.519Z,9.48
2022-08-03T05:58:29.991Z,5.97
2022-08-03T05:59:39.230Z,7.50
2022-08-03T06:00:54.670Z,6.20
2022-08-03T06:01:56.944Z,5.10
2022-08-03T06:02:59.280Z,5.95
2022-08-03T06:04:01.807Z,5.50
2022-08-03T06:05:05.019Z,5.60
2022-08-03T06:06:07.220Z,6.95
2022-08-03T06:07:09.465Z,6.05
2022-08-03T06:08:11.789Z,4.88
2022-08-03T06:09:18.070Z,6.10
2022-08-03T06:10:34.958Z,5.78
2022-08-03T06:11:41.585Z,6.68
2022-08-03T06:12:49.355Z,5.00
2022-08-03T06:13:51.544Z,4.88
2022-08-03T06:14:53.731Z,4.93
2022-08-03T06:15:55.941Z,5.35
2022-08-03T06:16:58.184Z,5.80
2022-08-03T06:18:02.193Z,5.03
2022-08-03T06:19:04.634Z,4.70
2022-08-03T06:20:07.194Z,4.97
2022-08-03T06:21:15.180Z,4.68
2022-08-03T06:22:18.710Z,4.90
2022-08-03T06:23:21.064Z,4.82
2022-08-03T06:24:25.966Z,4.97
2022-08-03T06:25:31.436Z,4.72
2022-08-03T06:26:33.622Z,8.60
2022-08-03T06:27:40.051Z,7.07
2022-08-03T06:28:51.643Z,4.55
2022-08-03T06:29:56.258Z,4.75
2022-08-03T06:30:58.646Z,6.47
2022-08-03T06:32:00.885Z,6.80
2022-08-03T06:33:03.211Z,6.28
2022-08-03T06:34:32.733Z,4.95
2022-08-03T06:35:28.419Z,5.90
2022-08-03T06:36:31.724Z,4.40
2022-08-03T06:37:45.758Z,5.35
2022-08-03T06:38:48.006Z,4.80
2022-08-03T06:39:50.285Z,4.55
2022-08-03T06:40:52.494Z,4.60
2022-08-03T06:41:54.748Z,5.63
2022-08-03T06:42:59.130Z,4.03
2022-08-03T06:44:03.984Z,4.53
2022-08-03T06:45:08.971Z,5.20
2022-08-03T06:46:11.331Z,3.75
2022-08-03T06:47:13.547Z,4.90
2022-08-03T06:48:15.755Z,6.78
2022-08-03T06:49:18.129Z,10.82
2022-08-03T06:50:26.047Z,5.97
2022-08-03T06:52:04.441Z,5.65
2022-08-03T06:52:52.057Z,5.43
2022-08-03T06:53:54.228Z,9.30
2022-08-03T06:54:56.471Z,6.50
2022-08-03T06:55:58.697Z,7.28
2022-08-03T06:57:01.188Z,6.00
2022-08-03T06:58:03.825Z,8.13
2022-08-03T06:59:06.056Z,6.45
2022-08-03T07:00:12.712Z,7.00
2022-08-03T07:01:15.317Z,7.32
2022-08-03T07:02:21.287Z,7.00
2022-08-03T07:03:23.766Z,4.50
2022-08-03T07:04:25.964Z,4.45
2022-08-03T07:05:28.633Z,5.45
2022-08-03T07:06:31.761Z,5.75
2022-08-03T07:07:33.967Z,5.15
2022-08-03T07:08:36.275Z,7.82
2022-08-03T07:09:38.512Z,5.72
2022-08-03T07:10:45.098Z,5.50
2022-08-03T07:11:47.333Z,4.65
2022-08-03T07:12:55.927Z,7.93
2022-08-03T07:13:59.017Z,4.95
2022-08-03T07:15:03.595Z,5.15
2022-08-03T07:16:06.044Z,4.38
2022-08-03T07:17:11.798Z,5.43
2022-08-03T07:18:14.385Z,4.53
2022-08-03T07:19:16.726Z,4.00
2022-08-03T07:20:19.747Z,4.78
2022-08-03T07:21:22.033Z,4.70
2022-08-03T07:22:24.308Z,4.97
2022-08-03T07:23:26.595Z,5.95
2022-08-03T07:24:29.294Z,4.43
2022-08-03T07:25:31.566Z,4.88
2022-08-03T07:26:33.833Z,7.05
2022-08-03T07:27:37.246Z,7.28
2022-08-03T07:28:39.513Z,5.82
2022-08-03T07:29:41.735Z,5.93
2022-08-03T07:30:43.930Z,5.30
2022-08-03T07:31:46.195Z,4.22
2022-08-03T07:32:50.306Z,4.32
2022-08-03T07:33:53.824Z,5.97
2022-08-03T07:35:00.613Z,6.22
2022-08-03T07:36:04.187Z,5.60
2022-08-03T07:37:07.362Z,4.78
2022-08-03T07:38:09.576Z,4.18
2022-08-03T07:39:17.674Z,5.22
2022-08-03T07:40:20.773Z,4.53
2022-08-03T07:41:23.007Z,5.53
2022-08-03T07:42:25.689Z,4.80
2022-08-03T07:43:27.985Z,6.25
2022-08-03T07:44:30.170Z,7.50
2022-08-03T07:45:32.712Z,4.70
2022-08-03T07:46:35.053Z,3.97
2022-08-03T07:47:37.269Z,3.70
2022-08-03T07:48:39.647Z,4.15
2022-08-03T07:49:41.964Z,4.15
2022-08-03T07:50:44.328Z,3.95
2022-08-03T07:52:06.557Z,4.15
2022-08-03T07:53:08.922Z,3.60
2022-08-03T07:54:11.148Z,6.47
2022-08-03T07:55:14.130Z,3.50
2022-08-03T07:56:19.112Z,4.40
2022-08-03T07:57:21.330Z,3.95
2022-08-03T07:58:24.595Z,3.78
2022-08-03T07:59:26.814Z,5.10
2022-08-03T08:00:29.060Z,4.30
2022-08-03T08:01:32.958Z,3.75
2022-08-03T08:02:35.526Z,6.18
2022-08-03T08:03:52.207Z,3.50
2022-08-03T08:04:55.482Z,3.33
2022-08-03T08:05:58.116Z,3.55
2022-08-03T08:07:00.311Z,3.92
2022-08-03T08:08:03.475Z,4.93
2022-08-03T08:09:05.681Z,3.65
2022-08-03T08:10:10.521Z,3.50
2022-08-03T08:11:13.129Z,5.28
2022-08-03T08:12:16.103Z,3.75
2022-08-03T08:13:18.584Z,6.70
2022-08-03T08:14:20.906Z,3.88
2022-08-03T08:15:25.756Z,3.70
2022-08-03T08:16:28.380Z,3.45
2022-08-03T08:17:30.663Z,3.65
2022-08-03T08:18:32.988Z,3.40
2022-08-03T08:19:36.798Z,3.55
2022-08-03T08:20:43.681Z,5.82
2022-08-03T08:21:53.804Z,3.47
2022-08-03T08:23:24.873Z,3.47
2022-08-03T08:24:32.794Z,3.67
2022-08-03T08:25:36.927Z,3.40
2022-08-03T08:26:39.083Z,3.30
2022-08-03T08:28:30.484Z,3.35
2022-08-03T08:29:08.342Z,3.40
2022-08-03T08:30:13.875Z,4.32
2022-08-03T08:31:18.466Z,4.43
2022-08-03T08:32:20.696Z,5.25
2022-08-03T08:33:24.043Z,3.65
2022-08-03T08:34:26.826Z,3.35
2022-08-03T08:35:29.148Z,4.45
2022-08-03T08:36:35.088Z,3.42
2022-08-03T08:37:37.398Z,5.25
2022-08-03T08:38:42.714Z,4.15
2022-08-03T08:39:44.958Z,3.35
2022-08-03T08:40:50.168Z,4.47
2022-08-03T08:41:53.401Z,3.95
2022-08-03T08:42:58.871Z,4.82
2022-08-03T08:44:02.338Z,3.45
2022-08-03T08:45:06.594Z,3.53
2022-08-03T08:46:19.214Z,4.20
2022-08-03T08:47:30.716Z,4.45
2022-08-03T08:48:54.518Z,3.10
2022-08-03T08:50:09.841Z,3.00
2022-08-03T08:51:22.788Z,3.17
2022-08-03T08:52:31.806Z,2.92
2022-08-03T08:53:38.942Z,3.25
2022-08-03T08:54:44.792Z,2.95
2022-08-03T08:55:58.351Z,4.13
2022-08-03T08:57:12.414Z,3.15
2022-08-03T08:58:30.341Z,2.60
2022-08-03T08:59:48.017Z,3.08
2022-08-03T09:00:52.500Z,4.43
2022-08-03T09:01:58.747Z,3.28
2022-08-03T09:03:02.030Z,4.45
2022-08-03T09:04:07.424Z,3.00
2022-08-03T09:05:14.933Z,2.90
2022-08-03T09:06:17.482Z,3.63
2022-08-03T09:07:20.748Z,3.20
2022-08-03T09:08:23.416Z,4.85
2022-08-03T09:10:05.940Z,3.42
2022-08-03T09:10:48.163Z,2.90
2022-08-03T09:11:53.440Z,3.20
2022-08-03T09:13:03.717Z,3.00
2022-08-03T09:14:06.147Z,3.65
2022-08-03T09:15:32.317Z,4.05
2022-08-03T09:16:34.517Z,3.28
2022-08-03T09:17:42.506Z,5.93
2022-08-03T09:18:49.251Z,2.78
2022-08-03T09:20:10.648Z,3.10
2022-08-03T09:21:31.259Z,3.90
2022-08-03T09:22:34.183Z,3.10
2022-08-03T09:24:01.595Z,5.50
2022-08-03T09:25:24.655Z,4.55
2022-08-03T09:26:29.793Z,3.60
2022-08-03T09:27:45.985Z,4.20
2022-08-03T09:29:04.668Z,2.70
2022-08-03T09:30:33.460Z,2.70
2022-08-03T09:31:45.836Z,2.67
2022-08-03T09:32:48.298Z,3.35
2022-08-03T09:33:50.600Z,3.55
2022-08-03T09:34:58.040Z,3.00
2022-08-03T09:36:00.541Z,2.92
2022-08-03T09:37:02.781Z,3.25
2022-08-03T09:38:29.611Z,2.90
2022-08-03T09:39:41.915Z,2.92
2022-08-03T09:40:46.361Z,3.00
2022-08-03T09:42:05.978Z,2.83
2022-08-03T09:43:08.985Z,2.88
2022-08-03T09:44:24.581Z,3.28
2022-08-03T09:45:28.552Z,2.63
2022-08-03T09:46:32.133Z,3.20
2022-08-03T09:47:36.807Z,3.28
2022-08-03T09:48:46.993Z,2.80
2022-08-03T09:50:05.162Z,2.70
2022-08-03T09:51:13.252Z,4.10
2022-08-03T09:52:48.341Z,4.25
2022-08-03T09:54:00.347Z,2.95
2022-08-03T09:56:05.220Z,3.53
2022-08-03T09:56:58.344Z,3.95
2022-08-03T09:58:09.574Z,2.90
2022-08-03T09:59:14.211Z,2.97
2022-08-03T10:00:17.862Z,2.90
2022-08-03T10:01:24.210Z,2.92
2022-08-03T10:02:27.884Z,3.40
2022-08-03T10:03:35.215Z,2.70
2022-08-03T10:04:47.566Z,2.90
2022-08-03T10:05:49.886Z,3.63
2022-08-03T10:07:10.107Z,3.15
2022-08-03T10:08:16.794Z,2.70
2022-08-03T10:09:21.965Z,3.22
2022-08-03T10:10:30.371Z,3.70
2022-08-03T10:11:41.793Z,3.17
2022-08-03T10:12:48.204Z,2.95
2022-08-03T10:13:52.468Z,3.65
2022-08-03T10:15:03.735Z,5.45
2022-08-03T10:16:21.662Z,2.95
2022-08-03T10:17:27.313Z,3.10
2022-08-03T10:18:29.600Z,4.45
2022-08-03T10:19:32.009Z,3.00
2022-08-03T10:20:45.664Z,3.20
2022-08-03T10:21:55.631Z,4.13
2022-08-03T10:22:58.509Z,3.50
2022-08-03T10:24:05.465Z,3.38
2022-08-03T10:25:11.604Z,3.22
2022-08-03T10:26:19.351Z,3.13
2022-08-03T10:27:24.115Z,3.20
2022-08-03T10:28:32.395Z,2.80
2022-08-03T10:29:40.287Z,2.83
2022-08-03T10:30:45.760Z,3.20
2022-08-03T10:31:58.019Z,3.03
2022-08-03T10:33:50.869Z,3.90
2022-08-03T10:34:44.522Z,4.47
2022-08-03T10:35:52.791Z,2.90
2022-08-03T10:36:59.446Z,4.80
2022-08-03T10:38:09.815Z,2.90
2022-08-03T10:39:16.251Z,3.00
2022-08-03T10:40:39.484Z,3.15
2022-08-03T10:41:47.239Z,2.83
2022-08-03T10:42:54.456Z,3.35
2022-08-03T10:44:02.290Z,3.25
2022-08-03T10:45:08.109Z,3.08
2022-08-03T10:46:10.374Z,3.17
2022-08-03T10:47:18.374Z,2.92
2022-08-03T10:48:24.949Z,3.65
2022-08-03T10:49:34.667Z,2.90
2022-08-03T10:50:39.153Z,2.80
2022-08-03T10:51:43.116Z,3.30
2022-08-03T10:53:01.975Z,3.20
2022-08-03T10:54:06.216Z,3.20
2022-08-03T10:55:55.203Z,3.00
2022-08-03T10:57:16.473Z,2.95
2022-08-03T10:58:53.254Z,2.67
2022-08-03T11:00:00.754Z,3.17
2022-08-03T11:01:09.002Z,3.00
2022-08-03T11:02:12.595Z,3.20
2022-08-03T11:03:14.882Z,3.25
2022-08-03T11:04:19.021Z,4.28
2022-08-03T11:05:29.101Z,3.00
2022-08-03T11:06:37.432Z,3.20
2022-08-03T11:07:40.056Z,3.00
2022-08-03T11:08:42.316Z,2.97
2022-08-03T11:09:49.973Z,4.15
2022-08-03T11:10:58.279Z,3.83
2022-08-03T11:12:31.342Z,3.90
2022-08-03T11:13:34.250Z,3.03
2022-08-03T11:14:48.323Z,3.15
2022-08-03T11:15:54.111Z,2.88
2022-08-03T11:17:14.117Z,3.13
2022-08-03T11:18:18.219Z,2.97
2022-08-03T11:19:28.544Z,4.03
2022-08-03T11:20:51.145Z,2.85
2022-08-03T11:21:55.259Z,3.33
2022-08-03T11:22:59.722Z,2.92
2022-08-03T11:24:04.335Z,2.90
2022-08-03T11:25:54.612Z,5.40
2022-08-03T11:26:34.653Z,2.63
2022-08-03T11:27:37.738Z,3.40
2022-08-03T11:28:46.995Z,2.95
2022-08-03T11:30:22.323Z,3.85
2022-08-03T11:31:50.180Z,3.20
2022-08-03T11:32:56.961Z,4.55
2022-08-03T11:34:16.519Z,3.95
2022-08-03T11:35:21.838Z,4.20
2022-08-03T11:36:32.090Z,3.85
2022-08-03T11:37:35.071Z,2.88
2022-08-03T11:39:12.523Z,2.88
2022-08-03T11:40:47.226Z,3.65
2022-08-03T11:41:58.620Z,3.03
2022-08-03T11:43:00.818Z,2.85
2022-08-03T11:44:03.148Z,3.20
2022-08-03T11:45:07.807Z,3.17
2022-08-03T11:46:29.956Z,2.92
2022-08-03T11:47:37.407Z,2.90
2022-08-03T11:48:53.355Z,4.90
2022-08-03T11:49:59.293Z,3.10
2022-08-03T11:51:18.618Z,4.30
2022-08-03T11:52:26.995Z,3.13
2022-08-03T11:53:31.165Z,3.58
2022-08-03T11:54:35.713Z,7.35
2022-08-03T11:55:38.547Z,3.45
2022-08-03T11:56:49.544Z,3.10
2022-08-03T11:59:01.120Z,5.38
2022-08-03T11:59:20.440Z,3.20
2022-08-03T12:00:27.965Z,3.00
2022-08-03T12:01:31.593Z,3.00
2022-08-03T12:02:38.941Z,3.05
2022-08-03T12:03:41.280Z,3.20
2022-08-03T12:04:51.423Z,3.97
2022-08-03T12:05:54.735Z,3.20
2022-08-03T12:07:03.791Z,4.18
2022-08-03T12:08:07.412Z,5.20
2022-08-03T12:09:16.250Z,2.97
2022-08-03T12:10:18.572Z,3.25
2022-08-03T12:11:21.947Z,3.20
2022-08-03T12:12:24.148Z,2.80
2022-08-03T12:14:33.139Z,3.08
2022-08-03T12:15:03.541Z,3.00
2022-08-03T12:16:05.899Z,3.00
2022-08-03T12:17:08.102Z,2.97
2022-08-03T12:18:16.466Z,3.22
2022-08-03T12:19:18.699Z,3.00
2022-08-03T12:20:34.458Z,4.47
2022-08-03T12:21:56.985Z,2.90
2022-08-03T12:23:06.614Z,4.50
2022-08-03T12:24:09.180Z,3.13
2022-08-03T12:25:39.123Z,2.90
2022-08-03T12:26:58.816Z,3.83
2022-08-03T12:28:36.294Z,3.10
2022-08-03T12:29:42.780Z,3.45
2022-08-03T12:31:07.600Z,2.92
2022-08-03T12:32:15.862Z,2.90
2022-08-03T12:33:26.263Z,2.90
2022-08-03T12:34:48.514Z,3.83
2022-08-03T12:36:02.458Z,3.08
2022-08-03T12:37:05.238Z,3.20
2022-08-03T12:38:24.715Z,3.35
2022-08-03T12:39:30.918Z,3.63
2022-08-03T12:40:33.646Z,3.15
2022-08-03T12:41:38.038Z,3.10
2022-08-03T12:42:40.947Z,3.00
2022-08-03T12:43:49.717Z,4.90
2022-08-03T12:44:56.384Z,2.80
2022-08-03T12:46:13.120Z,2.92
2022-08-03T12:47:16.145Z,2.97
2022-08-03T12:48:18.368Z,3.00
2022-08-03T12:49:26.493Z,3.10
2022-08-03T12:50:32.000Z,2.90
2022-08-03T12:51:57.378Z,2.90
2022-08-03T12:53:01.610Z,3.20
2022-08-03T12:54:05.112Z,3.15
2022-08-03T12:55:07.764Z,3.00
2022-08-03T12:56:09.974Z,4.28
2022-08-03T12:57:15.699Z,3.63
2022-08-03T12:58:34.189Z,4.90
2022-08-03T12:59:52.878Z,3.50
2022-08-03T13:00:58.725Z,3.05
2022-08-03T13:02:02.320Z,2.90
2022-08-03T13:04:35.287Z,3.20
2022-08-03T13:05:44.951Z,3.00
2022-08-03T13:07:02.486Z,3.10
2022-08-03T13:08:21.157Z,2.97
2022-08-03T13:09:25.463Z,3.20
2022-08-03T13:10:30.665Z,3.20
2022-08-03T13:11:57.218Z,3.05
2022-08-03T13:12:59.233Z,3.33
2022-08-03T13:14:02.943Z,3.00
2022-08-03T13:15:05.662Z,3.05
2022-08-03T13:16:07.854Z,3.47
2022-08-03T13:17:16.602Z,3.00
2022-08-03T13:18:19.038Z,2.97
2022-08-03T13:19:21.280Z,3.35
2022-08-03T13:20:24.169Z,3.13
2022-08-03T13:21:28.849Z,3.50
2022-08-03T13:22:40.293Z,3.72
2022-08-03T13:23:43.355Z,4.50
2022-08-03T13:24:51.277Z,3.17
2022-08-03T13:25:55.649Z,3.72
2022-08-03T13:26:58.788Z,2.92
2022-08-03T13:28:05.903Z,3.20
2022-08-03T13:29:09.121Z,2.97
2022-08-03T13:30:11.677Z,3.20
2022-08-03T13:31:16.238Z,3.03
2022-08-03T13:32:19.672Z,3.20
2022-08-03T13:33:22.019Z,3.28
2022-08-03T13:34:26.804Z,2.80
2022-08-03T13:35:31.634Z,3.22
2022-08-03T13:37:07.473Z,2.85
2022-08-03T13:38:02.064Z,3.08
2022-08-03T13:39:09.092Z,4.97
2022-08-03T13:40:11.886Z,3.65
2022-08-03T13:41:16.977Z,3.42
2022-08-03T13:42:20.098Z,3.40
2022-08-03T13:43:22.616Z,2.97
2022-08-03T13:44:29.540Z,4.22
2022-08-03T13:45:32.261Z,2.85
2022-08-03T13:46:34.604Z,3.00
2022-08-03T13:47:38.052Z,3.20
2022-08-03T13:48:40.285Z,2.53
2022-08-03T13:49:42.676Z,3.50
2022-08-03T13:51:02.536Z,2.72
2022-08-03T13:52:07.702Z,2.88
2022-08-03T13:53:09.969Z,2.78
2022-08-03T13:54:12.704Z,2.83
2022-08-03T13:55:15.712Z,3.05
2022-08-03T13:56:18.263Z,2.63
2022-08-03T13:58:03.345Z,2.83
2022-08-03T13:58:42.660Z,3.10
2022-08-03T13:59:44.850Z,2.80
2022-08-03T14:00:47.128Z,3.00
2022-08-03T14:01:55.441Z,5.00
2022-08-03T14:03:06.735Z,3.38
2022-08-03T14:04:15.898Z,3.30
2022-08-03T14:05:24.570Z,3.85
2022-08-03T14:06:26.898Z,8.77
2022-08-03T14:07:29.107Z,2.80
2022-08-03T14:08:31.273Z,3.70
2022-08-03T14:09:33.488Z,3.47
2022-08-03T14:10:38.065Z,3.75
2022-08-03T14:12:07.483Z,3.15
2022-08-03T14:13:12.229Z,4.90
2022-08-03T14:14:17.145Z,2.78
2022-08-03T14:15:19.484Z,3.03
2022-08-03T14:16:21.812Z,4.50
2022-08-03T14:17:24.065Z,2.90
2022-08-03T14:18:33.541Z,4.55
2022-08-03T14:19:52.547Z,4.93
2022-08-03T14:21:00.653Z,2.88
2022-08-03T14:22:07.179Z,5.63
2022-08-03T14:23:09.445Z,3.05
2022-08-03T14:24:11.719Z,3.88
2022-08-03T14:25:14.005Z,3.63
2022-08-03T14:26:20.490Z,3.10
2022-08-03T14:27:22.984Z,2.60
2022-08-03T14:28:25.571Z,3.00
2022-08-03T14:29:27.798Z,2.80
2022-08-03T14:30:33.060Z,2.92
2022-08-03T14:32:12.116Z,4.72
2022-08-03T14:33:00.884Z,3.28
2022-08-03T14:34:03.982Z,3.28
2022-08-03T14:35:06.561Z,4.45
2022-08-03T14:36:08.809Z,3.47
2022-08-03T14:37:11.012Z,3.20
2022-08-03T14:38:13.410Z,3.22
2022-08-03T14:39:15.721Z,2.88
2022-08-03T14:40:19.194Z,2.80
2022-08-03T14:41:21.488Z,3.30
2022-08-03T14:42:23.872Z,3.90
2022-08-03T14:43:26.109Z,2.80
2022-08-03T14:44:36.513Z,3.63
2022-08-03T14:45:39.924Z,2.63
2022-08-03T14:46:44.728Z,4.15
2022-08-03T14:50:33.158Z,4.13
2022-08-03T14:50:38.185Z,2.92
2022-08-03T14:50:44.153Z,2.83
2022-08-03T14:51:51.332Z,4.22
2022-08-03T14:52:58.183Z,2.78
2022-08-03T14:54:00.506Z,2.83
2022-08-03T14:55:03.504Z,2.83
2022-08-03T14:56:10.131Z,3.30
2022-08-03T14:57:12.961Z,2.80
2022-08-03T14:58:19.647Z,2.90
2022-08-03T14:59:23.143Z,3.03